KEFT

Monroe Municipal Airport

Monroe, Wisconsin, USA
METAR KEFT 172215Z AUTO 00000KT 10SM SCT026 SCT034 BKN044 26/20 A2998 RMK AO2 T02610195
Observed Flight Rules
Aug-17 @ 22:15 UTC (23 minutes ago) Visual Flight Rules
Visibility Clouds
10 miles
  • Scattered at 2,600' AGL
  • Scattered at 3,400' AGL
  • Broken at 4,400' AGL
Temperatures Readings
Current 26°C / 79°F
Dewpoint 20°C / 68°F
Humidity 70%
Altimeter 29.98" Hg
Pressure 1015 hPa
Elevation 331
METAR KEFT 172215Z AUTO 00000KT 10SM SCT026 SCT034 BKN044 26/20 A2998 RMK AO2 T02610195
Observed Flight Rules
Aug-17 @ 22:15 UTC
(23 minutes ago)
VFR
Clouds
  • Scattered at 2,600' AGL
  • Scattered at 3,400' AGL
  • Broken at 4,400' AGL
Temperature Dewpoint
26°C / 79°F 20°C / 68°F
Humidity Altimeter Pressure
70% 29.98" Hg 1015 hPa